Time;durP1;ratioP1;P1;durP2;ratioP2;P2;SDS_P1;SDS_P2;PMS_P1;PMS_P2;Temp;Humidity;BMP_temperature;BMP_pressure;BME280_temperature;BME280_humidity;BME280_pressure;Samples;Min_cycle;Max_cycle;Signal;HPM_P1;HPM_P2
2024/03/04 00:01:08;;;;;;;24.93;10.03;;;;;;;;;;5044619;28;20275;-57
2024/03/04 00:03:34;;;;;;;23.90;8.82;;;;;;;;;;5046991;28;20026;-59
2024/03/04 00:06:00;;;;;;;26.97;9.87;;;;;;;;;;5059559;28;20057;-58
2024/03/04 00:08:25;;;;;;;16.83;7.60;;;;;;;;;;5047683;28;20034;-59
2024/03/04 00:10:51;;;;;;;19.23;7.57;;;;;;;;;;5048355;28;20076;-59
2024/03/04 00:13:17;;;;;;;21.55;7.85;;;;;;;;;;5055494;28;20056;-59
2024/03/04 00:15:42;;;;;;;23.52;9.02;;;;;;;;;;5061162;28;20037;-57
2024/03/04 00:18:07;;;;;;;14.70;6.97;;;;;;;;;;5055804;28;20055;-58
2024/03/04 00:20:33;;;;;;;15.82;7.35;;;;;;;;;;5050427;28;20057;-59
2024/03/04 00:22:58;;;;;;;17.83;7.33;;;;;;;;;;5055592;28;20090;-59
2024/03/04 00:25:24;;;;;;;19.03;6.80;;;;;;;;;;5057063;28;20025;-56
2024/03/04 00:27:49;;;;;;;17.33;7.00;;;;;;;;;;5062131;28;20068;-57
2024/03/04 00:30:14;;;;;;;18.33;5.87;;;;;;;;;;5058844;28;20048;-58
2024/03/04 00:32:40;;;;;;;14.27;6.10;;;;;;;;;;5055257;28;20036;-59
2024/03/04 00:35:09;;;;;;;13.43;6.97;;;;;;;;;;5054962;28;20033;-59
2024/03/04 00:37:36;;;;;;;19.40;7.10;;;;;;;;;;5061529;28;20025;-59
2024/03/04 00:40:05;;;;;;;19.80;6.53;;;;;;;;;;5053473;28;20079;-59
2024/03/04 00:42:32;;;;;;;18.73;6.32;;;;;;;;;;5044584;28;20037;-59
2024/03/04 00:45:02;;;;;;;15.93;6.45;;;;;;;;;;5053354;28;20044;-57
2024/03/04 00:47:28;;;;;;;14.38;6.30;;;;;;;;;;5055928;28;20024;-58
2024/03/04 00:49:54;;;;;;;18.47;6.13;;;;;;;;;;5055626;28;20063;-60
2024/03/04 00:52:20;;;;;;;17.53;7.00;;;;;;;;;;5037586;28;20276;-57
2024/03/04 00:54:45;;;;;;;14.55;6.22;;;;;;;;;;5040684;28;20034;-57
2024/03/04 00:57:10;;;;;;;20.20;6.83;;;;;;;;;;5051131;28;20099;-57
2024/03/04 00:59:37;;;;;;;14.00;6.03;;;;;;;;;;5044513;28;20045;-58
2024/03/04 01:02:05;;;;;;;17.30;6.70;;;;;;;;;;5054571;28;20029;-58
2024/03/04 01:04:31;;;;;;;24.73;6.97;;;;;;;;;;5054624;28;20273;-58
2024/03/04 01:06:57;;;;;;;13.70;6.65;;;;;;;;;;5060921;28;20254;-56
2024/03/04 01:09:23;;;;;;;15.82;5.28;;;;;;;;;;5052735;28;20056;-58
2024/03/04 01:11:48;;;;;;;10.60;4.27;;;;;;;;;;5048432;28;20037;-52
2024/03/04 01:14:14;;;;;;;9.67;3.70;;;;;;;;;;5054308;28;20278;-58
2024/03/04 01:16:42;;;;;;;11.07;4.13;;;;;;;;;;5056070;28;20267;-58
2024/03/04 01:19:08;;;;;;;12.95;5.88;;;;;;;;;;5048586;28;20036;-58
2024/03/04 01:21:33;;;;;;;14.77;5.18;;;;;;;;;;5045145;28;20021;-57
2024/03/04 01:23:58;;;;;;;10.47;4.50;;;;;;;;;;5054552;28;20029;-56
2024/03/04 01:26:24;;;;;;;11.85;4.82;;;;;;;;;;5054246;28;20056;-58
2024/03/04 01:28:49;;;;;;;17.63;4.27;;;;;;;;;;5061146;28;20041;-58
2024/03/04 01:31:18;;;;;;;5.85;2.88;;;;;;;;;;5054283;28;20678;-57
2024/03/04 01:33:53;;;;;;;10.63;4.15;;;;;;;;;;5054449;28;20041;-58
2024/03/04 01:36:19;;;;;;;13.85;4.53;;;;;;;;;;5051863;28;20030;-58
2024/03/04 01:38:44;;;;;;;9.10;4.20;;;;;;;;;;5060308;28;20055;-57
2024/03/04 01:41:11;;;;;;;12.38;4.50;;;;;;;;;;5061674;28;20059;-56
2024/03/04 01:43:36;;;;;;;7.30;3.80;;;;;;;;;;5054617;28;20056;-56
2024/03/04 01:46:02;;;;;;;8.67;4.10;;;;;;;;;;5060517;28;20033;-58
2024/03/04 01:48:27;;;;;;;12.45;4.97;;;;;;;;;;5062853;28;20029;-57
2024/03/04 01:50:54;;;;;;;8.48;3.75;;;;;;;;;;5053909;28;20069;-55
2024/03/04 01:53:20;;;;;;;12.77;4.07;;;;;;;;;;5053435;28;20034;-57
2024/03/04 01:56:00;;;;;;;11.65;3.72;;;;;;;;;;5054005;28;20262;-59
2024/03/04 01:58:26;;;;;;;11.93;4.07;;;;;;;;;;5052868;28;20049;-58
2024/03/04 02:00:52;;;;;;;11.27;4.03;;;;;;;;;;5054041;28;20269;-56
2024/03/04 02:03:18;;;;;;;12.48;3.85;;;;;;;;;;5065367;28;20029;-58
2024/03/04 02:05:45;;;;;;;10.20;3.53;;;;;;;;;;5042847;28;20037;-59
2024/03/04 02:08:10;;;;;;;;;;;;;;;;;;5060780;28;20040;-58
2024/03/04 02:10:36;;;;;;;9.50;3.10;;;;;;;;;;5054292;28;19972;-58
2024/03/04 02:13:02;;;;;;;10.83;4.20;;;;;;;;;;5053805;28;20033;-58
2024/03/04 02:15:28;;;;;;;10.60;3.50;;;;;;;;;;5054400;28;20263;-59
2024/03/04 02:17:54;;;;;;;18.23;4.43;;;;;;;;;;5057622;28;20037;-58
2024/03/04 02:20:21;;;;;;;18.10;5.07;;;;;;;;;;5053991;28;20274;-58
2024/03/04 02:22:47;;;;;;;10.17;4.17;;;;;;;;;;5063688;28;20029;-58
2024/03/04 02:25:12;;;;;;;17.53;4.50;;;;;;;;;;5048602;28;20287;-57
2024/03/04 02:27:38;;;;;;;11.40;4.47;;;;;;;;;;5069035;28;20262;-56
2024/03/04 02:30:04;;;;;;;15.57;5.03;;;;;;;;;;5072926;28;20048;-57
2024/03/04 02:32:30;;;;;;;12.68;4.47;;;;;;;;;;5057978;28;20057;-57
2024/03/04 02:34:57;;;;;;;10.43;4.82;;;;;;;;;;5058003;28;20048;-59
2024/03/04 02:37:23;;;;;;;14.03;4.53;;;;;;;;;;5062123;28;20029;-58
2024/03/04 02:39:51;;;;;;;12.20;5.63;;;;;;;;;;5055567;28;20329;-58
2024/03/04 02:42:17;;;;;;;17.27;5.00;;;;;;;;;;5044132;28;20297;-57
2024/03/04 02:44:43;;;;;;;12.37;4.60;;;;;;;;;;5057464;28;20258;-58
2024/03/04 02:47:08;;;;;;;13.80;4.60;;;;;;;;;;5057685;28;20370;-58
2024/03/04 02:49:35;;;;;;;9.05;4.80;;;;;;;;;;5064675;28;20029;-58
2024/03/04 02:52:01;;;;;;;18.55;6.03;;;;;;;;;;5044051;28;20037;-58
2024/03/04 02:54:26;;;;;;;17.42;5.13;;;;;;;;;;5057533;28;20097;-58
2024/03/04 02:56:52;;;;;;;12.60;6.47;;;;;;;;;;5057296;28;20048;-57
2024/03/04 02:59:19;;;;;;;21.60;6.33;;;;;;;;;;5057104;28;20029;-57
2024/03/04 03:01:48;;;;;;;14.70;6.47;;;;;;;;;;5056695;28;20266;-56
2024/03/04 03:04:14;;;;;;;15.52;7.05;;;;;;;;;;5057105;28;20259;-57
2024/03/04 03:06:42;;;;;;;14.85;7.13;;;;;;;;;;5057255;28;20041;-58
2024/03/04 03:09:08;;;;;;;21.38;7.80;;;;;;;;;;5067940;28;20029;-57
2024/03/04 03:11:33;;;;;;;18.55;5.72;;;;;;;;;;5067082;28;20033;-57
2024/03/04 03:13:59;;;;;;;19.73;5.33;;;;;;;;;;5056806;28;20042;-58
2024/03/04 03:16:25;;;;;;;18.15;5.57;;;;;;;;;;5056979;28;20037;-58
2024/03/04 03:18:50;;;;;;;20.67;6.17;;;;;;;;;;5064115;28;20070;-57
2024/03/04 03:21:16;;;;;;;10.85;4.72;;;;;;;;;;5055854;28;20093;-58
2024/03/04 03:23:42;;;;;;;12.93;5.37;;;;;;;;;;5056649;28;20037;-59
2024/03/04 03:26:09;;;;;;;16.42;5.50;;;;;;;;;;5056873;28;20037;-59
2024/03/04 03:28:36;;;;;;;10.13;4.95;;;;;;;;;;5062215;28;20085;-59
2024/03/04 03:31:03;;;;;;;16.15;5.78;;;;;;;;;;5053185;28;20038;-60
2024/03/04 03:33:28;;;;;;;18.92;5.55;;;;;;;;;;5052577;28;20034;-57
2024/03/04 03:35:53;;;;;;;13.37;5.40;;;;;;;;;;5041857;28;20045;-57
2024/03/04 03:38:19;;;;;;;15.17;5.07;;;;;;;;;;5053549;28;20047;-58
2024/03/04 03:40:45;;;;;;;10.90;4.78;;;;;;;;;;5057564;28;20022;-58
2024/03/04 03:43:10;;;;;;;11.82;5.25;;;;;;;;;;5057084;28;20076;-57
2024/03/04 03:45:37;;;;;;;14.17;5.63;;;;;;;;;;5048542;28;20075;-58
2024/03/04 03:48:04;;;;;;;14.98;6.32;;;;;;;;;;5061616;28;20064;-57
2024/03/04 03:50:29;;;;;;;14.13;4.90;;;;;;;;;;5045205;28;20093;-59
2024/03/04 03:52:55;;;;;;;13.27;4.87;;;;;;;;;;5049447;28;20041;-59
2024/03/04 03:55:21;;;;;;;14.50;4.00;;;;;;;;;;5054050;28;20334;-58
2024/03/04 03:57:46;;;;;;;9.97;4.30;;;;;;;;;;5046587;28;20093;-57
2024/03/04 04:00:12;;;;;;;10.40;3.97;;;;;;;;;;5057749;28;20065;-58
2024/03/04 04:02:38;;;;;;;13.45;3.90;;;;;;;;;;5049584;28;20089;-59
2024/03/04 04:05:04;;;;;;;8.65;3.58;;;;;;;;;;5051757;28;20052;-59
2024/03/04 04:07:29;;;;;;;10.77;4.77;;;;;;;;;;5044469;28;20044;-58
2024/03/04 04:09:54;;;;;;;10.07;3.50;;;;;;;;;;5062377;28;20056;-59
2024/03/04 04:12:20;;;;;;;9.32;3.65;;;;;;;;;;5043945;28;20045;-59
2024/03/04 04:14:45;;;;;;;12.47;4.30;;;;;;;;;;5052188;28;20064;-57
2024/03/04 04:17:12;;;;;;;8.13;3.90;;;;;;;;;;5055605;28;20290;-58
2024/03/04 04:19:38;;;;;;;14.35;4.38;;;;;;;;;;5059417;28;20029;-59
2024/03/04 04:22:03;;;;;;;12.10;4.30;;;;;;;;;;5051874;28;20048;-59
2024/03/04 04:24:29;;;;;;;11.60;3.90;;;;;;;;;;5054295;28;20032;-58
2024/03/04 04:26:56;;;;;;;12.23;3.67;;;;;;;;;;5055664;28;20029;-58
2024/03/04 04:29:21;;;;;;;13.57;3.90;;;;;;;;;;5062437;28;20042;-58
2024/03/04 04:31:47;;;;;;;12.75;3.22;;;;;;;;;;5055292;28;20037;-57
2024/03/04 04:34:12;;;;;;;7.20;2.77;;;;;;;;;;5055540;28;20037;-59
2024/03/04 04:36:46;;;;;;;6.95;3.40;;;;;;;;;;5055178;28;20044;-57
2024/03/04 04:39:11;;;;;;;5.65;3.03;;;;;;;;;;5058052;28;20103;-57
2024/03/04 04:41:37;;;;;;;10.60;3.88;;;;;;;;;;5056332;28;20041;-59
2024/03/04 04:44:02;;;;;;;8.20;3.40;;;;;;;;;;5055246;28;20045;-58
2024/03/04 04:46:28;;;;;;;11.05;3.83;;;;;;;;;;5054659;28;20089;-59
2024/03/04 04:48:53;;;;;;;10.77;2.83;;;;;;;;;;5061274;28;20044;-56
2024/03/04 04:51:19;;;;;;;17.07;4.40;;;;;;;;;;5060186;28;20275;-56
2024/03/04 04:53:44;;;;;;;7.23;3.17;;;;;;;;;;5054848;28;20267;-57
2024/03/04 04:56:14;;;;;;;9.43;3.22;;;;;;;;;;5054928;28;20068;-55
2024/03/04 04:58:40;;;;;;;10.67;3.53;;;;;;;;;;5056303;28;20033;-58
2024/03/04 05:01:06;;;;;;;10.23;3.17;;;;;;;;;;5056152;28;20271;-58
2024/03/04 05:03:31;;;;;;;16.83;5.38;;;;;;;;;;5054544;28;20040;-59
2024/03/04 05:05:57;;;;;;;10.82;5.25;;;;;;;;;;5044392;28;20025;-57
2024/03/04 05:08:22;;;;;;;9.98;3.88;;;;;;;;;;5054897;28;20053;-58
2024/03/04 05:10:48;;;;;;;21.00;5.70;;;;;;;;;;5065156;28;20044;-58
2024/03/04 05:13:13;;;;;;;16.73;5.40;;;;;;;;;;5054711;28;20049;-57
2024/03/04 05:15:39;;;;;;;10.40;4.40;;;;;;;;;;5061924;28;20053;-59
2024/03/04 05:18:04;;;;;;;13.80;4.83;;;;;;;;;;5054409;28;20041;-59
2024/03/04 05:20:29;;;;;;;10.50;4.00;;;;;;;;;;5054864;28;20030;-56
2024/03/04 05:22:55;;;;;;;10.37;4.07;;;;;;;;;;5054441;28;20117;-58
2024/03/04 05:25:20;;;;;;;10.00;3.67;;;;;;;;;;5054345;28;20145;-57
2024/03/04 05:27:46;;;;;;;9.40;3.63;;;;;;;;;;5054783;28;20036;-57
2024/03/04 05:30:11;;;;;;;7.17;3.20;;;;;;;;;;5055451;28;20048;-59
2024/03/04 05:32:37;;;;;;;9.45;2.92;;;;;;;;;;5054603;28;20046;-59
2024/03/04 05:35:04;;;;;;;8.10;2.90;;;;;;;;;;5062576;28;20071;-57
2024/03/04 05:37:29;;;;;;;8.57;3.00;;;;;;;;;;5054769;28;20273;-58
2024/03/04 05:39:55;;;;;;;10.23;3.27;;;;;;;;;;5065946;28;20041;-58
2024/03/04 05:42:21;;;;;;;9.90;3.10;;;;;;;;;;5054339;28;20258;-60
2024/03/04 05:44:46;;;;;;;7.30;3.00;;;;;;;;;;5059213;28;20029;-57
2024/03/04 05:47:12;;;;;;;11.85;3.13;;;;;;;;;;5054520;28;20053;-58
2024/03/04 05:49:37;;;;;;;8.63;2.60;;;;;;;;;;5056303;28;20056;-58
2024/03/04 05:52:03;;;;;;;6.45;2.63;;;;;;;;;;5053440;28;20041;-59
2024/03/04 05:54:29;;;;;;;8.47;2.60;;;;;;;;;;5054400;28;20030;-58
2024/03/04 05:56:54;;;;;;;5.47;2.58;;;;;;;;;;5053533;28;20025;-57
2024/03/04 05:59:20;;;;;;;9.82;2.58;;;;;;;;;;5061895;28;20096;-56
2024/03/04 06:01:45;;;;;;;9.37;2.43;;;;;;;;;;5067817;28;20036;-56
2024/03/04 06:04:11;;;;;;;3.73;2.20;;;;;;;;;;5058446;28;20263;-58
2024/03/04 06:06:36;;;;;;;11.13;2.17;;;;;;;;;;5060612;28;20267;-57
2024/03/04 06:09:08;;;;;;;7.13;2.70;;;;;;;;;;5062215;28;20082;-56
2024/03/04 06:11:33;;;;;;;10.00;2.85;;;;;;;;;;5069496;28;20037;-59
2024/03/04 06:13:58;;;;;;;7.10;2.57;;;;;;;;;;5058435;28;20048;-56
2024/03/04 06:16:24;;;;;;;7.95;1.60;;;;;;;;;;5057742;28;20034;-58
2024/03/04 06:18:49;;;;;;;8.75;2.35;;;;;;;;;;5058416;28;20049;-58
2024/03/04 06:21:15;;;;;;;8.20;2.25;;;;;;;;;;5067030;28;20056;-57
2024/03/04 06:23:40;;;;;;;6.03;2.37;;;;;;;;;;5048248;28;20026;-56
2024/03/04 06:26:10;;;;;;;10.13;2.50;;;;;;;;;;5053121;28;20274;-58
2024/03/04 06:28:36;;;;;;;8.88;3.15;;;;;;;;;;5057628;28;20022;-57
2024/03/04 06:31:02;;;;;;;9.25;2.30;;;;;;;;;;5065941;28;20110;-55
2024/03/04 06:33:27;;;;;;;7.37;2.30;;;;;;;;;;5059973;28;20029;-56
2024/03/04 06:35:53;;;;;;;16.33;2.57;;;;;;;;;;5051321;28;20275;-60
2024/03/04 06:38:19;;;;;;;7.43;2.40;;;;;;;;;;5052359;28;20274;-58
2024/03/04 06:40:44;;;;;;;9.40;2.97;;;;;;;;;;5063595;28;20021;-58
2024/03/04 06:43:10;;;;;;;11.63;2.97;;;;;;;;;;5062805;28;20293;-55
2024/03/04 06:45:39;;;;;;;9.30;2.83;;;;;;;;;;5055141;28;20034;-56
2024/03/04 06:48:04;;;;;;;9.70;2.83;;;;;;;;;;5057396;28;20089;-59
2024/03/04 06:50:30;;;;;;;12.57;3.25;;;;;;;;;;5059424;28;20131;-58
2024/03/04 06:52:56;;;;;;;9.02;1.90;;;;;;;;;;5056421;28;20042;-56
2024/03/04 06:55:22;;;;;;;10.57;2.33;;;;;;;;;;5057402;28;20033;-58
2024/03/04 06:57:47;;;;;;;13.27;2.23;;;;;;;;;;5065177;28;20034;-55
2024/03/04 07:00:13;;;;;;;9.20;1.87;;;;;;;;;;5059789;28;20313;-57
2024/03/04 07:02:38;;;;;;;9.07;1.95;;;;;;;;;;5059615;28;20077;-57
2024/03/04 07:05:04;;;;;;;8.17;1.60;;;;;;;;;;5055685;28;20484;-58
2024/03/04 07:07:30;;;;;;;6.80;1.63;;;;;;;;;;5055328;28;20026;-57
2024/03/04 07:09:55;;;;;;;7.20;1.60;;;;;;;;;;5058416;28;20040;-60
2024/03/04 07:12:21;;;;;;;5.73;2.53;;;;;;;;;;5053071;28;20037;-55
2024/03/04 07:14:46;;;;;;;8.90;1.55;;;;;;;;;;5056020;28;20040;-56
2024/03/04 07:17:12;;;;;;;8.52;1.90;;;;;;;;;;5056507;28;20089;-58
2024/03/04 07:19:38;;;;;;;8.67;1.77;;;;;;;;;;5052969;28;20041;-59
2024/03/04 07:22:04;;;;;;;6.93;1.77;;;;;;;;;;5055059;28;20343;-59
2024/03/04 07:24:29;;;;;;;3.38;1.20;;;;;;;;;;5055186;28;20053;-58
2024/03/04 07:26:54;;;;;;;6.13;1.35;;;;;;;;;;5055320;28;20026;-59
2024/03/04 07:29:20;;;;;;;4.60;1.53;;;;;;;;;;5055823;28;20063;-57
2024/03/04 07:31:46;;;;;;;7.23;1.77;;;;;;;;;;5066453;28;20269;-57
2024/03/04 07:34:12;;;;;;;5.88;1.40;;;;;;;;;;5055465;28;20355;-58
2024/03/04 07:36:37;;;;;;;6.33;1.87;;;;;;;;;;5062448;28;20033;-59
2024/03/04 07:39:03;;;;;;;7.33;1.83;;;;;;;;;;5055487;28;20281;-58
2024/03/04 07:41:29;;;;;;;3.35;1.40;;;;;;;;;;5053770;28;20040;-60
2024/03/04 07:43:55;;;;;;;4.27;1.40;;;;;;;;;;5048751;28;20038;-56
2024/03/04 07:46:21;;;;;;;6.07;1.83;;;;;;;;;;5054644;28;20293;-59
2024/03/04 07:48:47;;;;;;;3.55;1.50;;;;;;;;;;5044996;28;20073;-59
2024/03/04 07:51:12;;;;;;;7.27;1.60;;;;;;;;;;5007603;28;1379811;-59
2024/03/04 07:53:38;;;;;;;6.70;2.00;;;;;;;;;;5055713;28;20294;-57
2024/03/04 07:56:04;;;;;;;5.07;1.67;;;;;;;;;;5055794;28;20055;-60
2024/03/04 07:58:30;;;;;;;9.93;1.90;;;;;;;;;;5051024;28;20057;-57
2024/03/04 08:00:55;;;;;;;8.15;2.17;;;;;;;;;;5050356;28;20060;-59
2024/03/04 08:03:21;;;;;;;6.40;2.77;;;;;;;;;;5050632;28;20025;-59
2024/03/04 08:05:48;;;;;;;5.45;2.25;;;;;;;;;;5055520;28;20030;-57
2024/03/04 08:08:14;;;;;;;9.23;2.57;;;;;;;;;;5052718;28;20029;-60
2024/03/04 08:10:39;;;;;;;6.47;1.50;;;;;;;;;;5050786;28;20291;-60
2024/03/04 08:13:05;;;;;;;5.43;1.73;;;;;;;;;;5062309;28;20326;-59
2024/03/04 08:15:30;;;;;;;3.67;1.73;;;;;;;;;;5055405;28;20018;-58
2024/03/04 08:17:56;;;;;;;3.93;1.63;;;;;;;;;;5053414;28;20058;-60
2024/03/04 08:20:22;;;;;;;5.32;2.28;;;;;;;;;;5056791;28;20289;-60
2024/03/04 08:22:48;;;;;;;6.15;2.00;;;;;;;;;;5054227;28;20086;-57
2024/03/04 08:25:16;;;;;;;12.37;2.73;;;;;;;;;;5059764;28;20056;-58
2024/03/04 08:27:42;;;;;;;8.57;2.30;;;;;;;;;;5048972;28;20330;-59
2024/03/04 08:30:09;;;;;;;7.97;2.47;;;;;;;;;;5055467;28;20258;-58
2024/03/04 08:32:35;;;;;;;10.50;2.80;;;;;;;;;;5058729;28;20033;-57
2024/03/04 08:35:00;;;;;;;14.63;2.80;;;;;;;;;;5056384;28;20281;-56
2024/03/04 08:37:27;;;;;;;12.07;3.00;;;;;;;;;;5054498;28;20034;-59
2024/03/04 08:39:52;;;;;;;7.32;1.75;;;;;;;;;;5054564;28;20096;-58
2024/03/04 08:42:18;;;;;;;5.93;2.25;;;;;;;;;;5062990;28;20026;-57
2024/03/04 08:44:43;;;;;;;4.90;2.10;;;;;;;;;;5054836;28;20060;-58
2024/03/04 08:47:09;;;;;;;8.43;2.10;;;;;;;;;;5057775;28;20282;-60
2024/03/04 08:49:35;;;;;;;8.80;1.83;;;;;;;;;;5059698;28;20033;-59
2024/03/04 08:52:01;;;;;;;5.00;2.05;;;;;;;;;;5058593;28;20032;-57
2024/03/04 08:54:29;;;;;;;;;;;;;;;;;;5053103;28;20067;-55
2024/03/04 08:56:54;;;;;;;9.40;2.17;;;;;;;;;;5051885;28;19916;-60
2024/03/04 08:59:20;;;;;;;8.27;2.30;;;;;;;;;;5048455;28;20306;-59
2024/03/04 09:01:45;;;;;;;11.95;3.17;;;;;;;;;;5054692;28;20029;-56
2024/03/04 09:04:11;;;;;;;4.63;2.00;;;;;;;;;;5054569;28;20032;-59
2024/03/04 09:06:36;;;;;;;6.47;2.20;;;;;;;;;;5054813;28;20025;-58
2024/03/04 09:09:02;;;;;;;97.25;15.23;;;;;;;;;;5056627;28;20037;-59
2024/03/04 09:11:27;;;;;;;65.28;9.23;;;;;;;;;;5054353;28;20097;-58
2024/03/04 09:13:55;;;;;;;7.13;2.83;;;;;;;;;;5056400;28;20049;-59
2024/03/04 09:16:21;;;;;;;4.77;2.43;;;;;;;;;;5054992;28;20025;-58
2024/03/04 09:18:46;;;;;;;17.77;3.75;;;;;;;;;;5050279;28;20309;-59
2024/03/04 09:21:12;;;;;;;6.13;2.70;;;;;;;;;;5052209;28;20041;-58
2024/03/04 09:23:38;;;;;;;;;;;;;;;;;;5064418;28;20021;-59
2024/03/04 09:26:07;;;;;;;5.57;2.43;;;;;;;;;;5054343;28;19988;-60
2024/03/04 09:28:32;;;;;;;9.30;2.07;;;;;;;;;;5059085;28;20029;-59
2024/03/04 09:30:59;;;;;;;3.22;1.58;;;;;;;;;;5054503;28;20044;-58
2024/03/04 09:33:24;;;;;;;5.13;2.28;;;;;;;;;;5063741;28;20037;-61
2024/03/04 09:35:50;;;;;;;4.38;1.83;;;;;;;;;;5054018;28;20113;-61
2024/03/04 09:38:15;;;;;;;4.05;1.80;;;;;;;;;;5059682;28;20117;-58
2024/03/04 09:40:43;;;;;;;3.38;1.38;;;;;;;;;;5054156;28;20017;-58
2024/03/04 09:43:09;;;;;;;4.50;1.50;;;;;;;;;;5056677;28;20064;-59
2024/03/04 09:45:36;;;;;;;12.03;5.73;;;;;;;;;;5058154;28;20029;-60
2024/03/04 09:48:01;;;;;;;;;;;;;;;;;;5054566;28;20037;-60
2024/03/04 09:50:27;;;;;;;5.87;1.53;;;;;;;;;;5054571;28;19909;-60
2024/03/04 09:52:58;;;;;;;6.05;1.58;;;;;;;;;;5052796;28;20041;-58
2024/03/04 09:55:24;;;;;;;3.70;1.73;;;;;;;;;;5053982;28;20032;-59
2024/03/04 09:57:49;;;;;;;6.45;1.80;;;;;;;;;;5053774;28;20045;-59
2024/03/04 10:00:14;;;;;;;7.37;1.90;;;;;;;;;;5053641;28;20041;-58
2024/03/04 10:02:41;;;;;;;4.88;1.40;;;;;;;;;;5060923;28;20027;-59
2024/03/04 10:05:07;;;;;;;;;;;;;;;;;;5054290;28;20038;-59
2024/03/04 10:07:35;;;;;;;3.30;1.70;;;;;;;;;;5051123;28;19944;-60
2024/03/04 10:10:01;;;;;;;3.20;1.43;;;;;;;;;;5051168;28;20041;-60
2024/03/04 10:12:26;;;;;;;4.60;1.65;;;;;;;;;;5055668;28;20041;-59
2024/03/04 10:14:58;;;;;;;6.88;1.88;;;;;;;;;;5053805;28;20048;-60
2024/03/04 10:17:23;;;;;;;2.87;1.43;;;;;;;;;;5050632;28;20034;-60
2024/03/04 10:20:02;;;;;;;6.63;2.10;;;;;;;;;;5050021;28;20037;-59
2024/03/04 10:22:35;;;;;;;3.37;1.77;;;;;;;;;;5048239;28;20065;-59
2024/03/04 10:25:01;;;;;;;3.93;1.47;;;;;;;;;;5050895;28;20033;-59
2024/03/04 10:27:26;;;;;;;;;;;;;;;;;;5052746;28;20026;-61
2024/03/04 10:29:52;;;;;;;5.80;2.00;;;;;;;;;;5053439;28;19988;-61
2024/03/04 10:32:18;;;;;;;;;;;;;;;;;;5053605;28;20025;-60
2024/03/04 10:34:43;;;;;;;5.50;1.87;;;;;;;;;;5053164;28;19916;-60
2024/03/04 10:37:09;;;;;;;3.65;1.50;;;;;;;;;;5052886;28;20025;-59
2024/03/04 10:39:36;;;;;;;2.20;1.30;;;;;;;;;;5053001;28;20035;-60
2024/03/04 10:42:03;;;;;;;4.20;1.30;;;;;;;;;;5051248;28;20064;-61
2024/03/04 10:44:28;;;;;;;4.07;1.37;;;;;;;;;;5053494;28;20120;-59
2024/03/04 10:46:55;;;;;;;3.30;1.80;;;;;;;;;;5055819;28;20022;-60
2024/03/04 10:49:22;;;;;;;3.17;1.30;;;;;;;;;;5056023;28;20033;-60
2024/03/04 10:51:47;;;;;;;9.43;1.60;;;;;;;;;;5057494;28;20033;-60
2024/03/04 10:54:13;;;;;;;5.57;1.30;;;;;;;;;;5063245;28;20029;-60
2024/03/04 10:56:38;;;;;;;;;;;;;;;;;;5055573;28;20027;-60
2024/03/04 10:59:06;;;;;;;3.60;1.40;;;;;;;;;;5056187;28;20321;-60
2024/03/04 11:01:32;;;;;;;5.40;1.80;;;;;;;;;;5055394;28;20045;-60
2024/03/04 11:04:02;;;;;;;4.17;1.30;;;;;;;;;;5061305;28;20038;-60
2024/03/04 11:06:28;;;;;;;7.28;1.58;;;;;;;;;;5059933;28;20045;-60
2024/03/04 11:08:55;;;;;;;3.33;1.70;;;;;;;;;;5054313;28;20029;-60
2024/03/04 11:11:34;;;;;;;4.97;1.48;;;;;;;;;;5056582;28;20039;-60
2024/03/04 11:14:05;;;;;;;5.80;1.35;;;;;;;;;;5057317;28;20060;-61
2024/03/04 11:16:34;;;;;;;2.13;1.20;;;;;;;;;;5056036;28;20068;-60
2024/03/04 11:19:11;;;;;;;4.55;1.42;;;;;;;;;;5054352;28;20038;-60
2024/03/04 11:21:38;;;;;;;5.45;1.52;;;;;;;;;;5053244;28;20191;-60
2024/03/04 11:24:08;;;;;;;2.05;1.30;;;;;;;;;;5064321;28;20029;-60
2024/03/04 11:26:35;;;;;;;5.10;1.42;;;;;;;;;;5067548;28;20043;-60
2024/03/04 11:29:01;;;;;;;2.90;1.40;;;;;;;;;;5058893;28;20120;-60
2024/03/04 11:31:28;;;;;;;5.10;1.35;;;;;;;;;;5062782;28;20033;-60
2024/03/04 11:34:04;;;;;;;2.83;1.50;;;;;;;;;;5064515;28;20047;-60
2024/03/04 11:36:31;;;;;;;3.78;1.58;;;;;;;;;;5059101;28;20037;-60
2024/03/04 11:38:57;;;;;;;2.60;1.52;;;;;;;;;;5055906;28;20053;-60
2024/03/04 11:41:48;;;;;;;2.72;1.60;;;;;;;;;;5058986;28;20057;-60
2024/03/04 11:44:23;;;;;;;1.98;1.23;;;;;;;;;;5053061;28;20052;-59
2024/03/04 11:46:49;;;;;;;4.43;1.48;;;;;;;;;;5048140;28;20056;-60
2024/03/04 11:49:20;;;;;;;6.22;2.22;;;;;;;;;;5038267;28;20041;-61
2024/03/04 11:51:46;;;;;;;22.50;7.55;;;;;;;;;;5050632;28;20053;-60
2024/03/04 11:54:12;;;;;;;2.63;1.08;;;;;;;;;;5054167;28;20037;-60
2024/03/04 11:56:39;;;;;;;1.65;1.08;;;;;;;;;;5055845;28;20389;-60
2024/03/04 11:59:04;;;;;;;3.75;1.30;;;;;;;;;;5056062;28;20052;-60
2024/03/04 12:01:30;;;;;;;7.68;2.15;;;;;;;;;;5055470;28;20093;-61
2024/03/04 12:03:55;;;;;;;3.53;1.45;;;;;;;;;;5057941;28;20029;-60
2024/03/04 12:06:21;;;;;;;11.23;3.97;;;;;;;;;;5059161;28;20032;-60
2024/03/04 12:08:46;;;;;;;5.50;2.40;;;;;;;;;;5055617;28;20111;-60
2024/03/04 12:11:12;;;;;;;10.88;4.55;;;;;;;;;;5053084;28;20040;-61
2024/03/04 12:13:38;;;;;;;5.18;1.67;;;;;;;;;;5047585;28;20033;-61
2024/03/04 12:16:04;;;;;;;4.13;1.65;;;;;;;;;;5055102;28;20033;-61
2024/03/04 12:18:30;;;;;;;4.82;1.60;;;;;;;;;;5055151;28;20025;-60
2024/03/04 12:20:56;;;;;;;3.67;1.58;;;;;;;;;;5064558;28;20112;-61
2024/03/04 12:23:21;;;;;;;6.38;1.83;;;;;;;;;;5059442;28;20511;-61
2024/03/04 12:25:48;;;;;;;3.03;1.50;;;;;;;;;;5054878;28;20032;-61
2024/03/04 12:28:19;;;;;;;4.25;2.00;;;;;;;;;;5054357;28;20033;-61
2024/03/04 12:30:45;;;;;;;3.83;1.50;;;;;;;;;;5054994;28;20049;-61
2024/03/04 12:33:13;;;;;;;3.22;1.58;;;;;;;;;;5058801;28;20031;-61
2024/03/04 12:35:38;;;;;;;3.70;1.33;;;;;;;;;;5051904;28;20075;-60
2024/03/04 12:38:04;;;;;;;1.27;0.93;;;;;;;;;;5051977;28;20025;-61
2024/03/04 12:40:29;;;;;;;4.45;1.30;;;;;;;;;;5051866;28;20037;-61
2024/03/04 12:42:59;;;;;;;2.95;1.33;;;;;;;;;;5036811;28;20030;-60
2024/03/04 12:45:25;;;;;;;4.72;1.30;;;;;;;;;;5055303;28;20032;-61
2024/03/04 12:47:57;;;;;;;2.28;1.00;;;;;;;;;;5055229;28;20037;-61
2024/03/04 12:50:23;;;;;;;3.47;1.27;;;;;;;;;;5056097;28;20030;-62
2024/03/04 12:52:49;;;;;;;3.88;1.33;;;;;;;;;;5060872;28;20068;-61
2024/03/04 12:55:14;;;;;;;7.50;1.90;;;;;;;;;;5054330;28;20034;-60
2024/03/04 12:57:40;;;;;;;1.88;1.02;;;;;;;;;;5064619;28;20096;-62
2024/03/04 13:00:12;;;;;;;3.03;1.17;;;;;;;;;;5054769;28;20041;-63
2024/03/04 13:02:41;;;;;;;3.00;1.15;;;;;;;;;;5059704;28;20021;-62
2024/03/04 13:05:07;;;;;;;1.35;0.95;;;;;;;;;;5064223;28;20043;-63
2024/03/04 13:07:33;;;;;;;3.40;1.42;;;;;;;;;;5054116;28;20029;-63
2024/03/04 13:09:58;;;;;;;2.55;1.05;;;;;;;;;;5054953;28;20095;-63
2024/03/04 13:12:24;;;;;;;11.60;4.35;;;;;;;;;;5049197;28;20030;-63
2024/03/04 13:14:49;;;;;;;3.58;1.30;;;;;;;;;;5052610;28;20038;-62
2024/03/04 13:17:15;;;;;;;2.72;1.40;;;;;;;;;;5045505;28;20039;-63
2024/03/04 13:19:40;;;;;;;4.50;0.70;;;;;;;;;;5042857;28;20025;-63
2024/03/04 13:22:05;;;;;;;2.67;1.00;;;;;;;;;;5053079;28;20034;-63
2024/03/04 13:24:31;;;;;;;3.10;1.30;;;;;;;;;;5051445;28;20029;-64
2024/03/04 13:26:56;;;;;;;5.65;1.13;;;;;;;;;;5054354;28;20037;-63
2024/03/04 13:29:22;;;;;;;4.20;1.30;;;;;;;;;;5054357;28;20029;-63
2024/03/04 13:31:47;;;;;;;3.13;1.00;;;;;;;;;;5053994;28;20029;-63
2024/03/04 13:34:13;;;;;;;1.95;1.15;;;;;;;;;;5055525;28;20038;-62
2024/03/04 13:36:38;;;;;;;3.40;1.80;;;;;;;;;;5064453;28;20558;-61
2024/03/04 13:39:03;;;;;;;3.88;1.75;;;;;;;;;;5049614;28;20045;-63
2024/03/04 13:41:28;;;;;;;2.00;1.20;;;;;;;;;;5053806;28;20053;-63
2024/03/04 13:43:54;;;;;;;2.85;1.45;;;;;;;;;;5058451;28;20040;-62
2024/03/04 13:46:21;;;;;;;2.88;1.10;;;;;;;;;;5065757;28;20048;-63
2024/03/04 13:48:47;;;;;;;2.95;1.15;;;;;;;;;;5058237;28;20056;-62
2024/03/04 13:51:12;;;;;;;3.78;1.15;;;;;;;;;;5051879;28;20030;-62
2024/03/04 13:53:38;;;;;;;2.28;1.30;;;;;;;;;;5043069;28;20066;-62
2024/03/04 13:56:03;;;;;;;4.13;1.60;;;;;;;;;;5067227;28;20026;-62
2024/03/04 13:58:28;;;;;;;4.45;2.13;;;;;;;;;;5052540;28;20034;-62
2024/03/04 14:00:54;;;;;;;5.10;1.60;;;;;;;;;;5042795;28;20041;-62
2024/03/04 14:03:19;;;;;;;3.70;1.77;;;;;;;;;;5053081;28;20055;-62
2024/03/04 14:05:45;;;;;;;1.98;1.02;;;;;;;;;;5056933;28;20496;-62
2024/03/04 14:08:10;;;;;;;3.35;2.17;;;;;;;;;;5048502;28;20033;-63
2024/03/04 14:10:37;;;;;;;4.13;2.03;;;;;;;;;;5041148;28;20030;-62
2024/03/04 14:13:03;;;;;;;4.53;1.55;;;;;;;;;;5052771;28;20038;-63
2024/03/04 14:15:29;;;;;;;3.70;1.35;;;;;;;;;;5054822;28;20029;-62
2024/03/04 14:17:54;;;;;;;3.33;1.40;;;;;;;;;;5055080;28;20077;-62
2024/03/04 14:20:20;;;;;;;3.13;1.40;;;;;;;;;;5062033;28;20455;-63
2024/03/04 14:22:45;;;;;;;3.92;1.42;;;;;;;;;;5060759;28;20025;-62
2024/03/04 14:25:11;;;;;;;3.55;1.55;;;;;;;;;;5058937;28;20025;-62
2024/03/04 14:27:36;;;;;;;5.03;1.60;;;;;;;;;;5054707;28;20110;-62
2024/03/04 14:30:02;;;;;;;2.17;1.00;;;;;;;;;;5048896;28;20539;-62
2024/03/04 14:32:29;;;;;;;5.68;2.15;;;;;;;;;;5054027;28;20070;-63
2024/03/04 14:34:57;;;;;;;3.90;1.05;;;;;;;;;;5057110;28;20029;-62